sensor_id;sensor_type;location;lat;lon;timestamp;pressure;altitude;pressure_sealevel;temperature;humidity
51147;BME280;37207;53.060;18.726;2022-12-18T00:01:28;102229.09;;;-3.57;90.56
51147;BME280;37207;53.060;18.726;2022-12-18T00:03:56;102228.22;;;-3.58;90.55
51147;BME280;37207;53.060;18.726;2022-12-18T00:06:25;102229.33;;;-3.60;90.57
51147;BME280;37207;53.060;18.726;2022-12-18T00:08:52;102225.18;;;-3.62;90.67
51147;BME280;37207;53.060;18.726;2022-12-18T00:11:22;102232.33;;;-3.64;90.45
51147;BME280;37207;53.060;18.726;2022-12-18T00:13:50;102239.23;;;-3.66;90.47
51147;BME280;37207;53.060;18.726;2022-12-18T00:16:19;102242.00;;;-3.66;90.28
51147;BME280;37207;53.060;18.726;2022-12-18T00:18:48;102246.70;;;-3.66;90.32
51147;BME280;37207;53.060;18.726;2022-12-18T00:21:15;102252.11;;;-3.66;90.40
51147;BME280;37207;53.060;18.726;2022-12-18T00:23:43;102260.38;;;-3.65;90.56
51147;BME280;37207;53.060;18.726;2022-12-18T00:26:16;102261.34;;;-3.65;90.44
51147;BME280;37207;53.060;18.726;2022-12-18T00:28:44;102263.96;;;-3.64;90.47
51147;BME280;37207;53.060;18.726;2022-12-18T00:31:13;102265.14;;;-3.67;90.58
51147;BME280;37207;53.060;18.726;2022-12-18T00:33:40;102265.17;;;-3.68;90.35
51147;BME280;37207;53.060;18.726;2022-12-18T00:36:15;102264.99;;;-3.69;90.29
51147;BME280;37207;53.060;18.726;2022-12-18T00:38:44;102269.40;;;-3.69;90.31
51147;BME280;37207;53.060;18.726;2022-12-18T00:41:12;102273.31;;;-3.70;90.52
51147;BME280;37207;53.060;18.726;2022-12-18T00:43:39;102281.09;;;-3.73;90.34
51147;BME280;37207;53.060;18.726;2022-12-18T00:46:06;102287.06;;;-3.77;90.26
51147;BME280;37207;53.060;18.726;2022-12-18T00:48:32;102288.83;;;-3.81;90.12
51147;BME280;37207;53.060;18.726;2022-12-18T00:50:59;102294.21;;;-3.85;90.19
51147;BME280;37207;53.060;18.726;2022-12-18T00:53:25;102294.25;;;-3.90;90.05
51147;BME280;37207;53.060;18.726;2022-12-18T00:55:52;102293.56;;;-3.94;89.86
51147;BME280;37207;53.060;18.726;2022-12-18T00:58:18;102301.00;;;-3.99;89.97
51147;BME280;37207;53.060;18.726;2022-12-18T01:00:45;102298.55;;;-4.02;89.94
51147;BME280;37207;53.060;18.726;2022-12-18T01:03:13;102295.00;;;-4.05;89.88
51147;BME280;37207;53.060;18.726;2022-12-18T01:05:41;102305.14;;;-4.06;89.91
51147;BME280;37207;53.060;18.726;2022-12-18T01:08:07;102306.59;;;-4.06;90.08
51147;BME280;37207;53.060;18.726;2022-12-18T01:10:35;102314.91;;;-4.09;89.92
51147;BME280;37207;53.060;18.726;2022-12-18T01:13:01;102315.00;;;-4.11;89.87
51147;BME280;37207;53.060;18.726;2022-12-18T01:15:28;102317.45;;;-4.15;89.90
51147;BME280;37207;53.060;18.726;2022-12-18T01:17:55;102317.42;;;-4.19;89.71
51147;BME280;37207;53.060;18.726;2022-12-18T01:20:21;102315.83;;;-4.24;89.71
51147;BME280;37207;53.060;18.726;2022-12-18T01:22:48;102317.12;;;-4.27;89.81
51147;BME280;37207;53.060;18.726;2022-12-18T01:25:14;102318.45;;;-4.29;89.70
51147;BME280;37207;53.060;18.726;2022-12-18T01:27:41;102314.90;;;-4.31;89.82
51147;BME280;37207;53.060;18.726;2022-12-18T01:30:08;102318.95;;;-4.33;89.87
51147;BME280;37207;53.060;18.726;2022-12-18T01:32:35;102322.77;;;-4.34;90.02
51147;BME280;37207;53.060;18.726;2022-12-18T01:35:02;102324.77;;;-4.35;89.81
51147;BME280;37207;53.060;18.726;2022-12-18T01:37:29;102329.41;;;-4.36;89.81
51147;BME280;37207;53.060;18.726;2022-12-18T01:39:55;102329.48;;;-4.39;89.84
51147;BME280;37207;53.060;18.726;2022-12-18T01:42:22;102332.39;;;-4.43;89.87
51147;BME280;37207;53.060;18.726;2022-12-18T01:45:00;102333.48;;;-4.44;90.23
51147;BME280;37207;53.060;18.726;2022-12-18T01:47:34;102336.67;;;-4.46;90.35
51147;BME280;37207;53.060;18.726;2022-12-18T01:50:16;102333.60;;;-4.48;89.99
51147;BME280;37207;53.060;18.726;2022-12-18T01:52:45;102338.89;;;-4.49;89.86
51147;BME280;37207;53.060;18.726;2022-12-18T01:55:15;102341.57;;;-4.50;90.09
51147;BME280;37207;53.060;18.726;2022-12-18T01:57:43;102345.64;;;-4.51;90.21
51147;BME280;37207;53.060;18.726;2022-12-18T02:00:14;102342.91;;;-4.52;90.11
51147;BME280;37207;53.060;18.726;2022-12-18T02:02:43;102337.05;;;-4.52;89.96
51147;BME280;37207;53.060;18.726;2022-12-18T02:05:11;102344.44;;;-4.52;90.12
51147;BME280;37207;53.060;18.726;2022-12-18T02:08:03;102348.42;;;-4.56;89.85
51147;BME280;37207;53.060;18.726;2022-12-18T02:19:12;102366.04;;;-4.64;89.78
51147;BME280;37207;53.060;18.726;2022-12-18T02:21:50;102368.42;;;-4.64;89.91
51147;BME280;37207;53.060;18.726;2022-12-18T02:24:43;102368.42;;;-4.62;90.14
51147;BME280;37207;53.060;18.726;2022-12-18T02:27:11;102371.14;;;-4.59;90.32
51147;BME280;37207;53.060;18.726;2022-12-18T02:29:44;102373.26;;;-4.55;90.47
51147;BME280;37207;53.060;18.726;2022-12-18T02:32:16;102375.13;;;-4.52;90.33
51147;BME280;37207;53.060;18.726;2022-12-18T02:34:48;102377.52;;;-4.51;90.35
51147;BME280;37207;53.060;18.726;2022-12-18T02:37:18;102380.56;;;-4.53;90.17
51147;BME280;37207;53.060;18.726;2022-12-18T02:39:48;102383.27;;;-4.55;90.16
51147;BME280;37207;53.060;18.726;2022-12-18T02:42:16;102385.26;;;-4.56;89.82
51147;BME280;37207;53.060;18.726;2022-12-18T02:44:49;102384.90;;;-4.58;89.75
51147;BME280;37207;53.060;18.726;2022-12-18T02:47:21;102389.06;;;-4.58;89.74
51147;BME280;37207;53.060;18.726;2022-12-18T02:50:05;102387.14;;;-4.60;89.32
51147;BME280;37207;53.060;18.726;2022-12-18T02:52:41;102392.18;;;-4.56;89.80
51147;BME280;37207;53.060;18.726;2022-12-18T02:58:44;102400.48;;;-4.49;89.93
51147;BME280;37207;53.060;18.726;2022-12-18T03:01:11;102404.73;;;-4.49;89.76
51147;BME280;37207;53.060;18.726;2022-12-18T03:03:50;102407.39;;;-4.49;89.87
51147;BME280;37207;53.060;18.726;2022-12-18T03:06:24;102405.27;;;-4.48;89.85
51147;BME280;37207;53.060;18.726;2022-12-18T03:08:58;102407.87;;;-4.47;90.04
51147;BME280;37207;53.060;18.726;2022-12-18T03:11:28;102407.05;;;-4.45;89.82
51147;BME280;37207;53.060;18.726;2022-12-18T03:14:18;102412.36;;;-4.48;89.35
51147;BME280;37207;53.060;18.726;2022-12-18T03:16:49;102412.79;;;-4.50;89.52
51147;BME280;37207;53.060;18.726;2022-12-18T03:19:22;102416.59;;;-4.46;89.63
51147;BME280;37207;53.060;18.726;2022-12-18T03:21:56;102420.41;;;-4.44;89.60
51147;BME280;37207;53.060;18.726;2022-12-18T03:24:26;102418.33;;;-4.43;89.83
51147;BME280;37207;53.060;18.726;2022-12-18T03:26:58;102417.83;;;-4.41;89.66
51147;BME280;37207;53.060;18.726;2022-12-18T03:29:33;102423.97;;;-4.40;89.70
51147;BME280;37207;53.060;18.726;2022-12-18T03:32:05;102426.15;;;-4.41;89.39
51147;BME280;37207;53.060;18.726;2022-12-18T03:34:37;102426.88;;;-4.40;89.57
51147;BME280;37207;53.060;18.726;2022-12-18T03:37:07;102426.38;;;-4.41;89.49
51147;BME280;37207;53.060;18.726;2022-12-18T03:39:34;102429.98;;;-4.44;89.23
51147;BME280;37207;53.060;18.726;2022-12-18T03:42:05;102432.85;;;-4.44;89.29
51147;BME280;37207;53.060;18.726;2022-12-18T03:47:29;102442.67;;;-4.40;89.66
51147;BME280;37207;53.060;18.726;2022-12-18T03:55:10;102451.61;;;-4.33;89.95
51147;BME280;37207;53.060;18.726;2022-12-18T03:57:41;102452.46;;;-4.33;89.82
51147;BME280;37207;53.060;18.726;2022-12-18T04:00:11;102466.17;;;-4.34;89.57
51147;BME280;37207;53.060;18.726;2022-12-18T04:02:54;102469.14;;;-4.37;89.69
51147;BME280;37207;53.060;18.726;2022-12-18T04:05:25;102474.73;;;-4.41;89.49
51147;BME280;37207;53.060;18.726;2022-12-18T04:07:54;102473.82;;;-4.41;89.44
51147;BME280;37207;53.060;18.726;2022-12-18T04:10:22;102472.76;;;-4.40;89.44
51147;BME280;37207;53.060;18.726;2022-12-18T04:12:48;102474.04;;;-4.38;89.76
51147;BME280;37207;53.060;18.726;2022-12-18T04:15:15;102476.19;;;-4.36;89.81
51147;BME280;37207;53.060;18.726;2022-12-18T04:17:47;102479.44;;;-4.33;89.97
51147;BME280;37207;53.060;18.726;2022-12-18T04:20:15;102479.87;;;-4.29;89.71
51147;BME280;37207;53.060;18.726;2022-12-18T04:22:43;102489.09;;;-4.25;89.98
51147;BME280;37207;53.060;18.726;2022-12-18T04:25:12;102485.79;;;-4.22;89.87
51147;BME280;37207;53.060;18.726;2022-12-18T04:27:43;102481.41;;;-4.19;90.15
51147;BME280;37207;53.060;18.726;2022-12-18T04:30:10;102483.23;;;-4.18;90.22
51147;BME280;37207;53.060;18.726;2022-12-18T04:32:37;102482.97;;;-4.17;90.07
51147;BME280;37207;53.060;18.726;2022-12-18T04:35:04;102481.61;;;-4.15;90.16
51147;BME280;37207;53.060;18.726;2022-12-18T04:37:33;102485.92;;;-4.13;90.19
51147;BME280;37207;53.060;18.726;2022-12-18T04:39:59;102489.90;;;-4.11;89.89
51147;BME280;37207;53.060;18.726;2022-12-18T04:42:32;102493.44;;;-4.07;90.15
51147;BME280;37207;53.060;18.726;2022-12-18T04:44:59;102497.23;;;-4.07;90.01
51147;BME280;37207;53.060;18.726;2022-12-18T04:47:25;102500.86;;;-4.06;89.82
51147;BME280;37207;53.060;18.726;2022-12-18T04:49:52;102499.95;;;-4.06;89.98
51147;BME280;37207;53.060;18.726;2022-12-18T04:52:18;102496.70;;;-4.08;89.66
51147;BME280;37207;53.060;18.726;2022-12-18T04:54:45;102499.05;;;-4.09;89.71
51147;BME280;37207;53.060;18.726;2022-12-18T04:57:12;102503.60;;;-4.10;89.74
51147;BME280;37207;53.060;18.726;2022-12-18T04:59:38;102509.81;;;-4.08;89.84
51147;BME280;37207;53.060;18.726;2022-12-18T05:02:05;102511.03;;;-4.06;89.91
51147;BME280;37207;53.060;18.726;2022-12-18T05:04:31;102507.61;;;-4.05;89.89
51147;BME280;37207;53.060;18.726;2022-12-18T05:06:58;102512.22;;;-4.05;89.92
51147;BME280;37207;53.060;18.726;2022-12-18T05:09:24;102512.55;;;-4.07;89.74
51147;BME280;37207;53.060;18.726;2022-12-18T05:11:51;102513.34;;;-4.09;89.75
51147;BME280;37207;53.060;18.726;2022-12-18T05:14:18;102511.75;;;-4.11;89.72
51147;BME280;37207;53.060;18.726;2022-12-18T05:16:44;102518.88;;;-4.12;89.82
51147;BME280;37207;53.060;18.726;2022-12-18T05:19:11;102520.63;;;-4.12;89.64
51147;BME280;37207;53.060;18.726;2022-12-18T05:21:37;102521.52;;;-4.11;89.50
51147;BME280;37207;53.060;18.726;2022-12-18T05:24:04;102522.41;;;-4.12;89.54
51147;BME280;37207;53.060;18.726;2022-12-18T05:26:31;102526.88;;;-4.15;89.45
51147;BME280;37207;53.060;18.726;2022-12-18T05:28:57;102530.61;;;-4.17;89.38
51147;BME280;37207;53.060;18.726;2022-12-18T05:31:24;102539.77;;;-4.23;89.15
51147;BME280;37207;53.060;18.726;2022-12-18T05:33:50;102542.52;;;-4.28;89.24
51147;BME280;37207;53.060;18.726;2022-12-18T05:36:17;102548.78;;;-4.32;89.16
51147;BME280;37207;53.060;18.726;2022-12-18T05:38:44;102551.83;;;-4.36;89.43
51147;BME280;37207;53.060;18.726;2022-12-18T05:41:10;102556.77;;;-4.38;89.45
51147;BME280;37207;53.060;18.726;2022-12-18T05:43:38;102560.81;;;-4.39;89.41
51147;BME280;37207;53.060;18.726;2022-12-18T05:46:07;102563.19;;;-4.37;89.50
51147;BME280;37207;53.060;18.726;2022-12-18T05:48:34;102564.77;;;-4.38;89.57
51147;BME280;37207;53.060;18.726;2022-12-18T05:51:06;102566.77;;;-4.38;89.58
51147;BME280;37207;53.060;18.726;2022-12-18T05:53:33;102566.45;;;-4.43;89.19
51147;BME280;37207;53.060;18.726;2022-12-18T05:56:02;102567.29;;;-4.48;89.09
51147;BME280;37207;53.060;18.726;2022-12-18T05:58:30;102574.08;;;-4.53;88.99
51147;BME280;37207;53.060;18.726;2022-12-18T06:00:57;102572.60;;;-4.60;88.99
51147;BME280;37207;53.060;18.726;2022-12-18T06:03:24;102576.54;;;-4.66;88.85
51147;BME280;37207;53.060;18.726;2022-12-18T06:05:51;102575.27;;;-4.74;88.78
51147;BME280;37207;53.060;18.726;2022-12-18T06:08:17;102582.83;;;-4.82;88.86
51147;BME280;37207;53.060;18.726;2022-12-18T06:10:50;102589.98;;;-4.90;88.54
51147;BME280;37207;53.060;18.726;2022-12-18T06:13:18;102596.70;;;-4.98;88.45
51147;BME280;37207;53.060;18.726;2022-12-18T06:15:45;102597.16;;;-5.02;88.72
51147;BME280;37207;53.060;18.726;2022-12-18T06:18:12;102602.73;;;-5.05;88.69
51147;BME280;37207;53.060;18.726;2022-12-18T06:20:38;102605.92;;;-5.13;88.37
51147;BME280;37207;53.060;18.726;2022-12-18T06:23:07;102609.89;;;-5.18;88.44
51147;BME280;37207;53.060;18.726;2022-12-18T06:25:37;102609.92;;;-5.17;88.95
51147;BME280;37207;53.060;18.726;2022-12-18T06:28:03;102609.80;;;-5.20;88.79
51147;BME280;37207;53.060;18.726;2022-12-18T06:30:30;102612.36;;;-5.29;88.52
51147;BME280;37207;53.060;18.726;2022-12-18T06:32:57;102615.39;;;-5.32;88.60
51147;BME280;37207;53.060;18.726;2022-12-18T06:35:23;102621.67;;;-5.33;89.06
51147;BME280;37207;53.060;18.726;2022-12-18T06:37:50;102628.09;;;-5.36;88.91
51147;BME280;37207;53.060;18.726;2022-12-18T06:40:17;102628.86;;;-5.40;88.74
51147;BME280;37207;53.060;18.726;2022-12-18T06:42:43;102644.25;;;-5.42;88.80
51147;BME280;37207;53.060;18.726;2022-12-18T06:45:10;102651.09;;;-5.42;88.74
51147;BME280;37207;53.060;18.726;2022-12-18T06:47:37;102656.08;;;-5.45;88.57
51147;BME280;37207;53.060;18.726;2022-12-18T06:50:04;102655.20;;;-5.47;88.19
51147;BME280;37207;53.060;18.726;2022-12-18T06:52:32;102658.41;;;-5.54;88.41
51147;BME280;37207;53.060;18.726;2022-12-18T06:54:59;102664.18;;;-5.60;88.25
51147;BME280;37207;53.060;18.726;2022-12-18T06:57:26;102665.21;;;-5.65;88.02
51147;BME280;37207;53.060;18.726;2022-12-18T06:59:52;102669.27;;;-5.65;88.26
51147;BME280;37207;53.060;18.726;2022-12-18T07:02:19;102669.84;;;-5.63;88.87
51147;BME280;37207;53.060;18.726;2022-12-18T07:04:45;102670.94;;;-5.62;88.80
51147;BME280;37207;53.060;18.726;2022-12-18T07:07:12;102672.73;;;-5.62;88.81
51147;BME280;37207;53.060;18.726;2022-12-18T07:09:39;102676.20;;;-5.62;88.87
51147;BME280;37207;53.060;18.726;2022-12-18T07:12:05;102680.24;;;-5.60;88.69
51147;BME280;37207;53.060;18.726;2022-12-18T07:14:33;102685.40;;;-5.58;89.21
51147;BME280;37207;53.060;18.726;2022-12-18T07:17:00;102692.23;;;-5.53;89.33
51147;BME280;37207;53.060;18.726;2022-12-18T07:19:26;102694.50;;;-5.50;89.21
51147;BME280;37207;53.060;18.726;2022-12-18T07:21:53;102694.20;;;-5.49;89.09
51147;BME280;37207;53.060;18.726;2022-12-18T07:24:19;102698.14;;;-5.47;88.97
51147;BME280;37207;53.060;18.726;2022-12-18T07:26:46;102699.45;;;-5.45;89.10
51147;BME280;37207;53.060;18.726;2022-12-18T07:29:13;102706.29;;;-5.42;89.12
51147;BME280;37207;53.060;18.726;2022-12-18T07:31:40;102708.44;;;-5.38;88.90
51147;BME280;37207;53.060;18.726;2022-12-18T07:34:10;102712.11;;;-5.37;88.97
51147;BME280;37207;53.060;18.726;2022-12-18T07:36:37;102713.43;;;-5.36;89.13
51147;BME280;37207;53.060;18.726;2022-12-18T07:39:04;102716.25;;;-5.35;88.90
51147;BME280;37207;53.060;18.726;2022-12-18T07:41:31;102712.21;;;-5.34;89.21
51147;BME280;37207;53.060;18.726;2022-12-18T07:43:59;102716.88;;;-5.31;89.17
51147;BME280;37207;53.060;18.726;2022-12-18T07:46:26;102719.66;;;-5.26;89.43
51147;BME280;37207;53.060;18.726;2022-12-18T07:48:52;102721.69;;;-5.22;89.33
51147;BME280;37207;53.060;18.726;2022-12-18T07:51:19;102725.34;;;-5.19;89.26
51147;BME280;37207;53.060;18.726;2022-12-18T07:53:46;102728.00;;;-5.16;89.38
51147;BME280;37207;53.060;18.726;2022-12-18T07:56:12;102731.34;;;-5.11;89.38
51147;BME280;37207;53.060;18.726;2022-12-18T07:58:39;102730.56;;;-5.07;89.30
51147;BME280;37207;53.060;18.726;2022-12-18T08:01:09;102730.52;;;-5.07;89.25
51147;BME280;37207;53.060;18.726;2022-12-18T08:03:37;102730.66;;;-5.03;89.13
51147;BME280;37207;53.060;18.726;2022-12-18T08:06:06;102730.59;;;-5.00;89.27
51147;BME280;37207;53.060;18.726;2022-12-18T08:08:33;102735.52;;;-4.96;89.49
51147;BME280;37207;53.060;18.726;2022-12-18T08:11:01;102743.86;;;-4.92;89.43
51147;BME280;37207;53.060;18.726;2022-12-18T08:13:28;102748.38;;;-4.86;89.21
51147;BME280;37207;53.060;18.726;2022-12-18T08:16:01;102748.05;;;-4.78;89.64
51147;BME280;37207;53.060;18.726;2022-12-18T08:18:29;102748.86;;;-4.70;89.47
51147;BME280;37207;53.060;18.726;2022-12-18T08:20:56;102756.45;;;-4.66;89.32
51147;BME280;37207;53.060;18.726;2022-12-18T08:23:22;102757.73;;;-4.63;89.59
51147;BME280;37207;53.060;18.726;2022-12-18T08:25:49;102763.81;;;-4.60;89.67
51147;BME280;37207;53.060;18.726;2022-12-18T08:28:16;102765.68;;;-4.54;89.22
51147;BME280;37207;53.060;18.726;2022-12-18T08:30:43;102761.63;;;-4.49;89.43
51147;BME280;37207;53.060;18.726;2022-12-18T08:33:09;102757.73;;;-4.38;89.39
51147;BME280;37207;53.060;18.726;2022-12-18T08:35:36;102762.46;;;-4.24;89.63
51147;BME280;37207;53.060;18.726;2022-12-18T08:38:03;102770.86;;;-4.10;89.30
51147;BME280;37207;53.060;18.726;2022-12-18T08:40:30;102773.86;;;-3.98;89.38
51147;BME280;37207;53.060;18.726;2022-12-18T08:42:56;102780.17;;;-3.87;89.06
51147;BME280;37207;53.060;18.726;2022-12-18T08:45:41;102786.52;;;-3.73;89.38
51147;BME280;37207;53.060;18.726;2022-12-18T08:48:08;102790.95;;;-3.58;89.19
51147;BME280;37207;53.060;18.726;2022-12-18T08:50:35;102790.76;;;-3.48;89.15
51147;BME280;37207;53.060;18.726;2022-12-18T08:53:01;102794.32;;;-3.40;89.15
51147;BME280;37207;53.060;18.726;2022-12-18T08:55:28;102798.14;;;-3.37;88.89
51147;BME280;37207;53.060;18.726;2022-12-18T08:57:54;102798.58;;;-3.42;88.16
51147;BME280;37207;53.060;18.726;2022-12-18T09:00:21;102798.76;;;-3.49;87.87
51147;BME280;37207;53.060;18.726;2022-12-18T09:02:48;102800.98;;;-3.56;88.07
51147;BME280;37207;53.060;18.726;2022-12-18T09:05:15;102803.00;;;-3.60;88.23
51147;BME280;37207;53.060;18.726;2022-12-18T09:07:41;102793.17;;;-3.63;88.14
51147;BME280;37207;53.060;18.726;2022-12-18T09:10:08;102793.33;;;-3.66;88.41
51147;BME280;37207;53.060;18.726;2022-12-18T09:12:35;102794.08;;;-3.68;88.42
51147;BME280;37207;53.060;18.726;2022-12-18T09:15:02;102799.36;;;-3.72;88.24
51147;BME280;37207;53.060;18.726;2022-12-18T09:17:28;102805.64;;;-3.74;88.27
51147;BME280;37207;53.060;18.726;2022-12-18T09:19:55;102810.49;;;-3.74;88.28
51147;BME280;37207;53.060;18.726;2022-12-18T09:22:21;102804.30;;;-3.74;88.23
51147;BME280;37207;53.060;18.726;2022-12-18T09:24:48;102800.20;;;-3.74;88.29
51147;BME280;37207;53.060;18.726;2022-12-18T09:27:15;102802.38;;;-3.72;88.13
51147;BME280;37207;53.060;18.726;2022-12-18T09:29:41;102803.63;;;-3.74;88.14
51147;BME280;37207;53.060;18.726;2022-12-18T09:32:08;102803.30;;;-3.79;88.10
51147;BME280;37207;53.060;18.726;2022-12-18T09:34:35;102803.27;;;-3.82;87.85
51147;BME280;37207;53.060;18.726;2022-12-18T09:37:02;102803.62;;;-3.81;88.28
51147;BME280;37207;53.060;18.726;2022-12-18T09:39:28;102798.50;;;-3.79;88.16
51147;BME280;37207;53.060;18.726;2022-12-18T09:41:57;102795.89;;;-3.83;87.86
51147;BME280;37207;53.060;18.726;2022-12-18T09:44:30;102791.79;;;-3.93;87.46
51147;BME280;37207;53.060;18.726;2022-12-18T09:47:15;102795.81;;;-3.99;87.70
51147;BME280;37207;53.060;18.726;2022-12-18T09:49:45;102799.95;;;-4.00;88.08
51147;BME280;37207;53.060;18.726;2022-12-18T09:52:30;102803.34;;;-4.00;88.30
51147;BME280;37207;53.060;18.726;2022-12-18T09:55:23;102801.04;;;-4.02;88.02
51147;BME280;37207;53.060;18.726;2022-12-18T09:57:55;102795.91;;;-4.01;88.26
51147;BME280;37207;53.060;18.726;2022-12-18T10:00:24;102789.45;;;-3.98;88.36
51147;BME280;37207;53.060;18.726;2022-12-18T10:02:53;102787.36;;;-3.96;88.33
51147;BME280;37207;53.060;18.726;2022-12-18T10:05:41;102783.70;;;-3.94;88.04
51147;BME280;37207;53.060;18.726;2022-12-18T10:10:52;102780.11;;;-3.95;88.36
51147;BME280;37207;53.060;18.726;2022-12-18T10:13:30;102775.39;;;-3.98;87.87
51147;BME280;37207;53.060;18.726;2022-12-18T10:19:29;102772.87;;;-4.02;88.02
51147;BME280;37207;53.060;18.726;2022-12-18T10:27:31;102783.30;;;-4.08;87.74
51147;BME280;37207;53.060;18.726;2022-12-18T10:30:00;102788.98;;;-4.07;87.83
51147;BME280;37207;53.060;18.726;2022-12-18T10:32:29;102797.64;;;-4.06;88.10
51147;BME280;37207;53.060;18.726;2022-12-18T10:34:57;102802.70;;;-4.05;88.23
51147;BME280;37207;53.060;18.726;2022-12-18T10:37:27;102804.27;;;-4.02;88.06
51147;BME280;37207;53.060;18.726;2022-12-18T10:40:10;102800.04;;;-3.99;88.36
51147;BME280;37207;53.060;18.726;2022-12-18T10:42:37;102796.02;;;-3.97;88.08
51147;BME280;37207;53.060;18.726;2022-12-18T10:45:14;102797.47;;;-3.93;88.20
51147;BME280;37207;53.060;18.726;2022-12-18T10:47:50;102804.15;;;-3.94;88.03
51147;BME280;37207;53.060;18.726;2022-12-18T10:50:26;102802.70;;;-3.98;87.82
51147;BME280;37207;53.060;18.726;2022-12-18T10:52:59;102801.94;;;-4.00;87.69
51147;BME280;37207;53.060;18.726;2022-12-18T10:55:31;102796.93;;;-4.00;87.93
51147;BME280;37207;53.060;18.726;2022-12-18T11:01:13;102791.48;;;-3.99;88.18
51147;BME280;37207;53.060;18.726;2022-12-18T11:03:45;102793.08;;;-3.96;88.43
51147;BME280;37207;53.060;18.726;2022-12-18T11:06:17;102794.30;;;-3.94;88.03
51147;BME280;37207;53.060;18.726;2022-12-18T11:09:00;102793.81;;;-3.96;88.14
51147;BME280;37207;53.060;18.726;2022-12-18T11:11:28;102792.73;;;-4.01;87.81
51147;BME280;37207;53.060;18.726;2022-12-18T11:14:02;102798.48;;;-4.06;87.83
51147;BME280;37207;53.060;18.726;2022-12-18T11:16:33;102805.14;;;-4.04;88.06
51147;BME280;37207;53.060;18.726;2022-12-18T11:19:19;102812.17;;;-4.01;87.94
51147;BME280;37207;53.060;18.726;2022-12-18T11:21:48;102814.45;;;-4.04;87.94
51147;BME280;37207;53.060;18.726;2022-12-18T11:24:20;102812.36;;;-4.08;87.75
51147;BME280;37207;53.060;18.726;2022-12-18T11:26:50;102819.25;;;-4.14;87.83
51147;BME280;37207;53.060;18.726;2022-12-18T11:29:18;102820.33;;;-4.19;87.50
51147;BME280;37207;53.060;18.726;2022-12-18T11:31:49;102833.88;;;-4.26;87.53
51147;BME280;37207;53.060;18.726;2022-12-18T11:34:28;102835.73;;;-4.29;87.46
51147;BME280;37207;53.060;18.726;2022-12-18T11:36:58;102839.52;;;-4.31;87.67
51147;BME280;37207;53.060;18.726;2022-12-18T11:42:09;102846.98;;;-4.20;88.42
51147;BME280;37207;53.060;18.726;2022-12-18T11:44:43;102848.15;;;-4.17;87.95
51147;BME280;37207;53.060;18.726;2022-12-18T11:47:27;102845.58;;;-4.20;88.08
51147;BME280;37207;53.060;18.726;2022-12-18T11:50:03;102843.51;;;-4.22;87.98
51147;BME280;37207;53.060;18.726;2022-12-18T11:52:38;102845.89;;;-4.24;87.71
51147;BME280;37207;53.060;18.726;2022-12-18T11:58:04;102839.08;;;-4.25;87.50
51147;BME280;37207;53.060;18.726;2022-12-18T12:00:36;102841.52;;;-4.25;87.65
51147;BME280;37207;53.060;18.726;2022-12-18T12:17:33;102848.42;;;-4.35;87.60
51147;BME280;37207;53.060;18.726;2022-12-18T12:23:41;102845.82;;;-4.38;87.30
51147;BME280;37207;53.060;18.726;2022-12-18T12:26:19;102854.61;;;-4.38;87.59
51147;BME280;37207;53.060;18.726;2022-12-18T12:29:14;102853.80;;;-4.37;87.46
51147;BME280;37207;53.060;18.726;2022-12-18T12:34:20;102850.09;;;-4.41;87.58
51147;BME280;37207;53.060;18.726;2022-12-18T12:37:10;102847.98;;;-4.42;87.60
51147;BME280;37207;53.060;18.726;2022-12-18T12:39:41;102844.33;;;-4.43;87.42
51147;BME280;37207;53.060;18.726;2022-12-18T12:42:35;102850.09;;;-4.47;86.99
51147;BME280;37207;53.060;18.726;2022-12-18T12:45:29;102851.65;;;-4.53;87.20
51147;BME280;37207;53.060;18.726;2022-12-18T12:48:01;102853.43;;;-4.57;87.25
51147;BME280;37207;53.060;18.726;2022-12-18T12:50:33;102855.45;;;-4.59;86.96
51147;BME280;37207;53.060;18.726;2022-12-18T12:53:01;102850.27;;;-4.59;87.31
51147;BME280;37207;53.060;18.726;2022-12-18T12:55:32;102856.36;;;-4.61;87.31
51147;BME280;37207;53.060;18.726;2022-12-18T13:01:04;102864.29;;;-4.68;87.34
51147;BME280;37207;53.060;18.726;2022-12-18T13:03:46;102859.34;;;-4.74;87.20
51147;BME280;37207;53.060;18.726;2022-12-18T13:06:33;102867.10;;;-4.80;86.95
51147;BME280;37207;53.060;18.726;2022-12-18T13:09:02;102882.45;;;-4.87;86.75
51147;BME280;37207;53.060;18.726;2022-12-18T13:19:40;102899.79;;;-4.95;87.57
51147;BME280;37207;53.060;18.726;2022-12-18T13:22:34;102900.32;;;-4.93;87.74
51147;BME280;37207;53.060;18.726;2022-12-18T13:25:01;102900.48;;;-4.91;87.67
51147;BME280;37207;53.060;18.726;2022-12-18T13:38:38;102915.13;;;-5.11;87.13
51147;BME280;37207;53.060;18.726;2022-12-18T13:48:36;102917.46;;;-5.28;87.32
51147;BME280;37207;53.060;18.726;2022-12-18T13:51:09;102918.98;;;-5.31;87.46
51147;BME280;37207;53.060;18.726;2022-12-18T13:53:59;102927.22;;;-5.35;87.60
51147;BME280;37207;53.060;18.726;2022-12-18T13:56:29;102928.52;;;-5.39;87.62
51147;BME280;37207;53.060;18.726;2022-12-18T13:59:15;102929.92;;;-5.42;87.49
51147;BME280;37207;53.060;18.726;2022-12-18T14:04:24;102936.89;;;-5.52;87.49
51147;BME280;37207;53.060;18.726;2022-12-18T14:06:55;102933.09;;;-5.50;87.71
51147;BME280;37207;53.060;18.726;2022-12-18T14:09:43;102932.30;;;-5.48;87.61
51147;BME280;37207;53.060;18.726;2022-12-18T14:12:24;102932.02;;;-5.47;87.68
51147;BME280;37207;53.060;18.726;2022-12-18T14:17:57;102928.96;;;-5.45;87.91
51147;BME280;37207;53.060;18.726;2022-12-18T14:20:27;102926.88;;;-5.47;87.78
51147;BME280;37207;53.060;18.726;2022-12-18T14:22:55;102929.54;;;-5.51;87.60
51147;BME280;37207;53.060;18.726;2022-12-18T14:25:24;102932.27;;;-5.56;87.48
51147;BME280;37207;53.060;18.726;2022-12-18T14:30:30;102924.08;;;-5.61;87.52
51147;BME280;37207;53.060;18.726;2022-12-18T14:33:02;102921.06;;;-5.65;87.59
51147;BME280;37207;53.060;18.726;2022-12-18T14:35:30;102928.16;;;-5.65;87.74